Leipzig Schkeuditz, Germany

12:26 PM CEST on September 17, 2014 (GMT +0200)
Luetzschena | Change Station
CLOSE
Current Station
Personal Weather Station
Location: Leipzig, SACHSEN
Elevation: 348 ft
Nearby Weather Stations

Elev 348 ft 51.38 °N, 12.28 °E | Updated 1 second ago

Partly Cloudy
Partly Cloudy
72.9 °F
Feels Like 76 °F
N
0.0
Wind Variable Wind from NE
Gusts 0.0 mph

Today
High -- | Low -- °F
--% Chance of Precip.
Yesterday
High -- | Low -- °F
Precip. -- in
6:48 AM 7:21 PM
Last Quarter, 37% visible
Pressure 30.01 in
Visibility 6.2 miles
Clouds Few 2600 ft
Heat Index 76 °F
Dew Point 58 °F
Humidity 60%
Rainfall 0.00 in
Snow Depth Not available.
UV 2.0 out of 12
Pollen Not available.
Air Quality Not available.
Flu Activity Not available.
METAR EDDP 171020Z 10010KT 9999 FEW026 21/14 Q1016 NOSIG

More Conditions Fewer Conditions

Pressure 30.01 in
Visibility 6.2 miles
Clouds Few 2600 ft
Heat Index 76 °F
Dew Point 58 °F
Humidity 60%
Rainfall 0.00 in
Snow Depth Not available.
UV 2.0 out of 12
Pollen Not available.
Air Quality Not available.
Flu Activity Not available.
METAR EDDP 171020Z 10010KT 9999 FEW026 21/14 Q1016 NOSIG

More Conditions Fewer Conditions

10-Day Weather Forecast

Almanac

Astronomy

Sep. 17, 2014 Rise Set
Actual Time 6:48 AM CEST 7:21 PM CEST
Civil Twilight 6:15 AM CEST 7:54 PM CEST
Nautical Twilight 5:35 AM CEST 8:34 PM CEST
Astronomical Twilight 4:53 AM CEST 9:16 PM CEST
Moon 12:04 AM CEST 3:47 PM CEST
Length of Visible Light 13h 39m
Length of Day
12h 32m
Tomorrow will be 3m 53s shorter.
Last Quarter, 37% of the Moon is Illuminated
Today
Last Quarter
Sep 24
New
Oct 1
First Quarter
Oct 8
Full
Oct 15
Last Quarter

Yesterday's Extremes

Country Highs Country Lows

Community

WunderPhotos

Upload Photos

1,753,993 photos uploaded!

Nearby

Snow Depth

Not available.

Earthquake Activity

City Distance Mag. Time & Date
No recent earthquake activity has been reported nearby.
Minimum magnitude displayed is 2.5.

Coastal Water Temperatures

Place Temperature
No Stations Reporting

Nearby Weather Stations